Terminal Aerodrome Forecast
Issued by NWS Twin Cities, MN

Home | Current Version | Previous Version | Graphics & Text | Print | Product List | Glossary On
Versions: 1 2 3 4 5 6 7 8 9 10 11 12 13 14 15 16
312
FTUS43 KMPX 100520
TAFSTC
TAF
KSTC 100520Z 1006/1106 29008KT P6SM SCT025
     FM101500 VRB03KT P6SM OVC080
     FM102200 11005KT P6SM OVC025
     FM110400 10008KT 3SM -SN OVC015=

USA.gov is the U.S. government's official web portal to all federal, state and local government web resources and services.